Time;durP1;ratioP1;P1;durP2;ratioP2;P2;SDS_P1;SDS_P2;PMS_P1;PMS_P2;Temp;Humidity;BMP_temperature;BMP_pressure;BME280_temperature;BME280_humidity;BME280_pressure;Samples;Min_cycle;Max_cycle;Signal;HPM_P1;HPM_P2
2022/06/12 00:00:01;;;;;;;10.43;6.43;;;;;;;13.82;78.16;96714.25;2005219;29;20496;-65
2022/06/12 00:01:02;;;;;;;11.40;6.43;;;;;;;13.84;78.26;96717.63;2002249;29;20045;-61
2022/06/12 00:02:03;;;;;;;8.65;6.43;;;;;;;13.83;78.04;96721.16;2002445;29;20058;-62
2022/06/12 00:03:06;;;;;;;9.30;6.25;;;;;;;13.83;78.39;96718.53;2010175;29;20101;-61
2022/06/12 00:04:08;;;;;;;8.98;6.45;;;;;;;13.83;78.17;96713.31;2010146;29;20053;-60
2022/06/12 00:05:10;;;;;;;12.73;6.70;;;;;;;13.85;78.08;96713.25;2010248;29;20086;-64
2022/06/12 00:06:11;;;;;;;10.38;6.43;;;;;;;13.83;78.31;96715.94;2017737;29;20548;-61
2022/06/12 00:07:13;;;;;;;9.18;6.47;;;;;;;13.81;78.10;96719.53;2002128;29;20045;-61
2022/06/12 00:08:14;;;;;;;9.43;5.85;;;;;;;13.80;78.47;96721.31;1995009;29;20050;-59
2022/06/12 00:09:15;;;;;;;10.90;6.75;;;;;;;13.78;78.37;96717.91;2017476;29;20441;-61
2022/06/12 00:10:17;;;;;;;10.43;7.00;;;;;;;13.77;78.01;96712.78;2017846;29;20061;-61
2022/06/12 00:11:19;;;;;;;8.15;6.40;;;;;;;13.77;78.53;96715.41;2017622;29;20053;-61
2022/06/12 00:12:20;;;;;;;12.95;6.45;;;;;;;13.74;78.32;96712.91;2025341;29;20143;-61
2022/06/12 00:13:25;;;;;;;7.57;5.68;;;;;;;13.73;78.36;96714.69;2009802;29;20053;-65
2022/06/12 00:14:26;;;;;;;9.40;6.40;;;;;;;13.71;78.57;96713.06;2018472;29;20051;-60
2022/06/12 00:15:28;;;;;;;10.40;7.35;;;;;;;13.72;78.65;96707.78;2009780;29;20037;-66
2022/06/12 00:16:30;;;;;;;9.95;6.57;;;;;;;13.70;79.00;96709.63;2002967;29;20046;-62
2022/06/12 00:17:32;;;;;;;10.55;7.13;;;;;;;13.70;78.90;96714.84;2010443;29;20049;-63
2022/06/12 00:18:33;;;;;;;9.18;7.13;;;;;;;13.70;78.66;96712.22;2002127;29;20069;-61
2022/06/12 00:19:34;;;;;;;9.48;7.07;;;;;;;13.68;78.97;96712.31;2010197;29;20041;-60
2022/06/12 00:20:36;;;;;;;10.60;6.72;;;;;;;13.68;78.93;96711.44;2010125;29;20056;-66
2022/06/12 00:21:37;;;;;;;9.40;6.90;;;;;;;13.67;79.20;96712.38;2010493;29;20053;-61
2022/06/12 00:22:38;;;;;;;11.05;8.30;;;;;;;13.65;79.31;96712.44;2009943;29;20049;-61
2022/06/12 00:23:43;;;;;;;11.02;7.95;;;;;;;13.62;78.84;96709.97;2009706;29;20061;-61
2022/06/12 00:24:44;;;;;;;12.13;8.40;;;;;;;13.61;79.45;96708.31;2003743;29;20053;-64
2022/06/12 00:25:45;;;;;;;13.25;7.45;;;;;;;13.61;79.36;96712.69;2009900;29;20053;-61
2022/06/12 00:26:51;;;;;;;11.60;7.75;;;;;;;13.58;79.15;96710.19;2010573;29;20052;-63
2022/06/12 00:27:52;;;;;;;9.00;6.90;;;;;;;13.58;79.14;96704.97;2018732;29;20056;-62
2022/06/12 00:29:01;;;;;;;9.00;6.78;;;;;;;13.56;79.38;96705.06;2017126;29;20061;-62
2022/06/12 00:30:04;;;;;;;10.38;7.35;;;;;;;13.55;79.41;96713.81;2011927;29;20079;-64
2022/06/12 00:31:05;;;;;;;9.38;7.20;;;;;;;13.55;79.63;96707.72;2018464;29;20417;-61
2022/06/12 00:32:09;;;;;;;10.82;8.13;;;;;;;13.53;79.91;96709.59;2015359;29;20045;-62
2022/06/12 00:33:11;;;;;;;12.55;7.50;;;;;;;13.51;79.72;96711.41;2010039;29;20057;-61
2022/06/12 00:34:13;;;;;;;12.18;7.32;;;;;;;13.49;79.84;96710.63;2017438;29;20049;-61
2022/06/12 00:35:14;;;;;;;11.25;7.35;;;;;;;13.48;80.14;96711.56;2010330;29;20056;-65
2022/06/12 00:36:15;;;;;;;10.55;7.78;;;;;;;13.49;80.11;96705.41;2017262;29;20097;-61
2022/06/12 00:37:18;;;;;;;9.68;7.30;;;;;;;13.49;80.08;96714.09;1994424;29;20447;-62
2022/06/12 00:38:19;;;;;;;11.90;8.05;;;;;;;13.49;79.83;96705.41;2002399;29;20136;-62
2022/06/12 00:39:20;;;;;;;9.15;7.38;;;;;;;13.46;79.86;96707.25;2017448;29;20057;-61
2022/06/12 00:40:22;;;;;;;9.23;7.30;;;;;;;13.46;80.40;96704.66;2009614;29;20501;-62
2022/06/12 00:41:23;;;;;;;9.13;7.18;;;;;;;13.45;80.56;96708.19;2003007;29;20062;-62
2022/06/12 00:42:31;;;;;;;12.05;7.43;;;;;;;13.43;80.23;96702.19;2002185;29;20114;-61
2022/06/12 00:43:32;;;;;;;10.68;6.93;;;;;;;13.41;80.58;96703.19;2011860;29;20057;-65
2022/06/12 00:44:38;;;;;;;11.15;7.55;;;;;;;13.40;80.16;96704.94;2009202;29;20053;-61
2022/06/12 00:45:42;;;;;;;9.93;7.40;;;;;;;13.42;80.24;96707.50;1996090;29;20058;-61
2022/06/12 00:46:46;;;;;;;11.35;7.15;;;;;;;13.40;80.55;96706.72;2010123;29;20052;-61
2022/06/12 00:47:47;;;;;;;9.95;7.93;;;;;;;13.42;80.37;96705.72;2017126;29;20536;-61
2022/06/12 00:48:49;;;;;;;11.45;7.20;;;;;;;13.42;79.99;96704.88;2002103;29;20058;-65
2022/06/12 00:49:56;;;;;;;9.65;7.65;;;;;;;13.41;80.37;96703.19;2002610;29;20057;-61
2022/06/12 00:51:01;;;;;;;8.52;6.93;;;;;;;13.43;80.06;96704.78;2017326;29;20053;-62
2022/06/12 00:52:24;;;;;;;14.20;7.40;;;;;;;13.44;80.07;96700.41;2010852;29;20378;-61
2022/06/12 00:53:38;;;;;;;12.70;8.63;;;;;;;13.44;79.30;96697.81;2013221;29;20056;-61
2022/06/12 00:54:40;;;;;;;11.25;8.50;;;;;;;13.44;79.30;96698.69;2009398;29;20764;-60
2022/06/12 00:56:00;;;;;;;10.05;7.55;;;;;;;13.43;79.86;96696.13;2010436;29;20067;-65
2022/06/12 00:57:03;;;;;;;15.85;7.95;;;;;;;13.40;79.57;96702.34;2009640;29;20441;-61
2022/06/12 00:58:09;;;;;;;13.57;8.93;;;;;;;13.41;79.53;96700.56;2009832;29;20068;-61
2022/06/12 00:59:13;;;;;;;9.48;7.57;;;;;;;13.40;79.59;96694.50;2010563;29;20053;-62
2022/06/12 01:00:15;;;;;;;12.40;8.30;;;;;;;13.43;79.33;96691.75;2010348;29;20049;-60
2022/06/12 01:01:20;;;;;;;12.35;7.13;;;;;;;13.41;78.83;96693.56;2017359;29;20049;-61
2022/06/12 01:02:25;;;;;;;10.38;6.68;;;;;;;13.41;79.08;96685.75;2017959;29;20076;-61
2022/06/12 01:03:27;;;;;;;9.48;7.00;;;;;;;13.40;78.65;96691.91;2009462;29;20057;-61
2022/06/12 01:07:09;;;;;;;9.63;6.78;;;;;;;13.42;78.29;96695.28;2025916;29;20055;-61
2022/06/12 01:08:11;;;;;;;11.65;7.22;;;;;;;13.40;78.19;96691.91;2017318;29;20045;-62
2022/06/12 01:09:22;;;;;;;9.38;6.97;;;;;;;13.37;78.06;96689.44;2016905;29;20548;-63
2022/06/12 01:10:25;;;;;;;9.55;7.22;;;;;;;13.31;78.16;96684.53;2017695;29;20056;-61
2022/06/12 01:11:26;;;;;;;9.07;7.15;;;;;;;13.31;78.79;96691.47;2009499;29;20064;-63
2022/06/12 01:12:30;;;;;;;12.45;6.82;;;;;;;13.32;78.61;96690.56;2010253;29;20049;-61
2022/06/12 01:13:36;;;;;;;9.90;6.57;;;;;;;13.34;79.06;96694.81;2010295;29;20502;-61
2022/06/12 01:14:41;;;;;;;12.32;7.43;;;;;;;13.30;78.55;96690.63;2010139;29;20045;-61
2022/06/12 01:15:45;;;;;;;8.77;6.88;;;;;;;13.27;78.75;96692.56;2009925;29;20048;-63
2022/06/12 01:16:48;;;;;;;9.63;6.60;;;;;;;13.14;78.81;96677.44;2010273;29;20053;-65
2022/06/12 01:17:49;;;;;;;12.23;8.05;;;;;;;13.23;79.31;96690.06;1995158;29;20074;-61
2022/06/12 01:18:53;;;;;;;12.20;7.25;;;;;;;13.22;79.41;96693.56;1995022;29;20054;-61
2022/06/12 01:19:57;;;;;;;13.20;9.07;;;;;;;13.18;79.04;96688.59;2017037;29;20109;-61
2022/06/12 01:21:10;;;;;;;12.57;9.05;;;;;;;13.16;79.22;96682.59;2017334;29;20057;-61
2022/06/12 01:22:27;;;;;;;9.93;7.82;;;;;;;13.15;78.86;96688.69;2002099;29;20058;-61
2022/06/12 01:23:55;;;;;;;15.80;9.45;;;;;;;13.09;78.95;96689.84;2005999;29;20060;-62
2022/06/12 01:25:13;;;;;;;10.82;6.72;;;;;;;13.11;79.29;96687.16;2017404;29;20045;-63
2022/06/12 01:26:40;;;;;;;8.98;6.63;;;;;;;13.06;79.09;96689.97;2017361;29;20045;-60
2022/06/12 01:27:57;;;;;;;11.45;6.63;;;;;;;13.04;79.15;96683.97;2020231;29;20416;-62
2022/06/12 01:29:11;;;;;;;9.38;6.50;;;;;;;13.00;79.06;96683.28;2016887;29;20055;-61
2022/06/12 01:30:18;;;;;;;7.97;6.13;;;;;;;12.98;79.17;96684.28;2003894;29;20054;-64
2022/06/12 01:31:39;;;;;;;7.38;5.93;;;;;;;13.01;78.42;96690.19;2011183;29;20410;-61
2022/06/12 01:32:56;;;;;;;8.88;6.07;;;;;;;13.06;78.36;96683.94;2016986;29;20540;-61
2022/06/12 01:34:03;;;;;;;8.57;5.95;;;;;;;13.01;78.50;96682.38;2018702;29;20478;-63
2022/06/12 01:35:19;;;;;;;8.18;6.43;;;;;;;13.02;78.17;96686.69;2017439;29;20048;-62
2022/06/12 01:36:29;;;;;;;8.27;5.75;;;;;;;12.99;77.88;96681.63;2019489;29;20061;-61
2022/06/12 01:37:58;;;;;;;10.63;6.90;;;;;;;12.98;78.07;96682.50;2017153;29;20059;-62
2022/06/12 01:39:08;;;;;;;7.32;6.03;;;;;;;12.94;78.53;96678.38;2020829;29;20048;-61
2022/06/12 01:40:15;;;;;;;9.50;6.40;;;;;;;12.91;78.45;96682.84;2008922;29;20453;-62
2022/06/12 01:41:26;;;;;;;9.82;6.18;;;;;;;12.89;78.86;96680.34;2010162;29;20045;-61
2022/06/12 01:42:30;;;;;;;7.72;6.07;;;;;;;12.84;79.15;96682.31;2010637;29;20060;-61
2022/06/12 01:43:45;;;;;;;9.88;6.18;;;;;;;12.80;78.58;96676.38;2017027;29;20049;-64
2022/06/12 01:45:05;;;;;;;6.85;5.60;;;;;;;12.74;78.97;96674.03;2015178;29;20108;-60
2022/06/12 01:46:06;;;;;;;8.40;6.15;;;;;;;12.73;79.73;96676.72;2017106;29;20520;-60
2022/06/12 01:47:32;;;;;;;8.60;6.32;;;;;;;12.71;79.95;96671.56;2016332;29;20048;-63
2022/06/12 01:48:59;;;;;;;8.20;5.90;;;;;;;12.68;80.11;96678.69;2016552;29;20041;-61
2022/06/12 01:50:15;;;;;;;7.40;5.63;;;;;;;12.65;80.15;96679.69;2004795;29;20475;-63
2022/06/12 01:51:16;;;;;;;7.78;5.55;;;;;;;12.66;79.78;96675.31;2013675;29;20049;-61
2022/06/12 01:52:41;;;;;;;7.93;5.25;;;;;;;12.66;79.92;96677.91;2017379;29;20053;-64
2022/06/12 01:54:08;;;;;;;8.43;5.38;;;;;;;12.64;79.97;96674.53;2012673;29;20049;-61
2022/06/12 01:55:20;;;;;;;7.75;5.72;;;;;;;12.63;79.53;96676.28;2015297;29;20045;-61
2022/06/12 01:56:35;;;;;;;7.40;5.50;;;;;;;12.62;79.18;96673.75;2013338;29;20068;-68
2022/06/12 01:57:57;;;;;;;7.00;5.45;;;;;;;12.58;79.08;96670.44;2016815;29;20052;-63
2022/06/12 01:59:09;;;;;;;7.10;4.85;;;;;;;12.61;78.68;96674.66;2008848;29;20053;-64
2022/06/12 02:00:14;;;;;;;9.25;5.30;;;;;;;12.58;78.76;96670.44;2018376;29;20053;-61
2022/06/12 02:01:28;;;;;;;6.88;5.20;;;;;;;12.61;79.48;96674.66;2008770;29;20060;-60
2022/06/12 02:02:34;;;;;;;7.07;5.50;;;;;;;12.60;78.54;96673.81;2008416;29;20053;-61
2022/06/12 02:03:40;;;;;;;7.90;5.25;;;;;;;12.57;78.30;96669.59;2009069;29;20050;-61
2022/06/12 02:05:16;;;;;;;5.97;4.80;;;;;;;12.55;79.40;96668.81;2003694;29;20058;-61
2022/06/12 02:06:19;;;;;;;9.13;5.55;;;;;;;12.51;79.39;96669.88;2016997;29;20049;-62
2022/06/12 02:07:23;;;;;;;7.55;5.60;;;;;;;12.49;79.62;96670.84;2016707;29;20060;-61
2022/06/12 02:08:26;;;;;;;8.45;5.75;;;;;;;12.47;79.70;96667.47;2009601;29;20045;-59
2022/06/12 02:09:30;;;;;;;6.75;5.53;;;;;;;12.50;79.32;96675.13;2009570;29;20052;-61
2022/06/12 02:10:35;;;;;;;9.15;5.32;;;;;;;12.44;79.98;96665.00;2016924;29;20050;-61
2022/06/12 02:14:16;;;;;;;10.63;5.80;;;;;;;12.35;80.22;96668.84;2008961;29;20058;-59
2022/06/12 02:15:24;;;;;;;7.97;5.82;;;;;;;12.31;79.75;96669.88;2010690;29;20056;-64
2022/06/12 02:16:29;;;;;;;7.90;5.22;;;;;;;12.30;80.48;96668.22;2016647;29;20060;-62
2022/06/12 02:17:33;;;;;;;7.70;5.45;;;;;;;12.23;79.90;96672.81;2009551;29;20048;-62
2022/06/12 02:18:41;;;;;;;6.90;5.25;;;;;;;12.24;80.11;96673.66;1994222;29;20055;-61
2022/06/12 02:19:43;;;;;;;9.35;5.25;;;;;;;12.21;80.53;96671.19;1989645;29;20074;-61
2022/06/12 02:20:47;;;;;;;8.35;5.63;;;;;;;12.20;81.11;96669.50;2009742;29;20049;-60
2022/06/12 02:22:09;;;;;;;9.55;6.15;;;;;;;12.14;81.75;96662.81;2016873;29;20059;-62
2022/06/12 02:23:14;;;;;;;8.23;6.00;;;;;;;12.09;81.46;96668.22;2019807;29;20048;-61
2022/06/12 02:24:19;;;;;;;8.15;5.50;;;;;;;12.14;81.88;96670.63;2008524;29;20553;-61
2022/06/12 02:25:24;;;;;;;9.50;5.65;;;;;;;12.07;81.42;96669.19;2002254;29;20058;-61
2022/06/12 02:26:31;;;;;;;7.53;5.68;;;;;;;12.06;81.11;96670.94;2008788;29;20045;-61
2022/06/12 02:27:37;;;;;;;7.78;5.05;;;;;;;12.08;81.04;96671.72;2003941;29;20045;-61
2022/06/12 02:28:44;;;;;;;8.18;5.78;;;;;;;12.05;81.38;96669.22;2008942;29;20049;-59
2022/06/12 02:30:07;;;;;;;7.28;5.63;;;;;;;12.02;81.55;96671.97;2009869;29;20052;-65
2022/06/12 02:31:13;;;;;;;7.18;5.25;;;;;;;11.97;81.85;96666.09;2015991;29;20056;-61
2022/06/12 02:32:18;;;;;;;9.10;5.35;;;;;;;12.00;81.02;96666.00;2014295;29;20040;-59
2022/06/12 02:33:24;;;;;;;6.65;5.20;;;;;;;12.03;81.61;96663.28;1994444;29;20061;-60
2022/06/12 02:34:29;;;;;;;8.25;5.53;;;;;;;12.01;80.90;96678.09;1996045;29;20061;-60
2022/06/12 02:35:39;;;;;;;6.30;5.13;;;;;;;12.00;81.86;96672.94;2001650;29;20561;-62
2022/06/12 02:36:45;;;;;;;8.25;6.22;;;;;;;12.00;81.61;96672.94;2003503;29;20057;-61
2022/06/12 02:37:51;;;;;;;9.40;6.15;;;;;;;11.99;81.20;96677.31;2016249;29;20052;-61
2022/06/12 02:38:58;;;;;;;7.10;5.38;;;;;;;11.97;81.55;96673.06;2015806;29;20057;-61
2022/06/12 02:40:05;;;;;;;7.10;5.40;;;;;;;11.96;81.88;96677.44;2010503;29;20052;-60
2022/06/12 02:41:12;;;;;;;8.90;6.22;;;;;;;11.95;81.64;96670.56;2009858;29;20053;-60
2022/06/12 02:42:17;;;;;;;6.57;5.38;;;;;;;11.95;81.96;96672.28;2010010;29;20053;-58
2022/06/12 02:43:22;;;;;;;9.55;6.40;;;;;;;11.91;81.98;96668.97;2009334;29;20421;-64
2022/06/12 02:44:31;;;;;;;9.95;6.03;;;;;;;11.89;80.97;96673.38;2017240;29;20060;-60
2022/06/12 02:45:37;;;;;;;10.02;5.55;;;;;;;11.85;82.00;96671.81;2016625;29;20057;-60
2022/06/12 02:46:43;;;;;;;7.95;5.65;;;;;;;11.86;81.86;96663.94;2017522;29;20057;-59
2022/06/12 02:47:45;;;;;;;9.50;5.72;;;;;;;11.84;81.38;96676.19;2008718;29;20050;-61
2022/06/12 02:48:46;;;;;;;8.98;5.57;;;;;;;11.83;81.54;96673.63;2001770;29;20046;-68
2022/06/12 02:49:48;;;;;;;8.52;5.90;;;;;;;11.80;81.52;96665.94;2009572;29;20529;-61
2022/06/12 02:50:57;;;;;;;8.00;5.93;;;;;;;11.89;81.14;96673.38;2017622;29;20061;-61
2022/06/12 02:52:02;;;;;;;9.02;5.13;;;;;;;11.87;81.49;96673.47;2016537;29;20045;-64
2022/06/12 02:53:06;;;;;;;7.90;5.72;;;;;;;11.84;81.23;96673.56;2009321;29;20049;-63
2022/06/12 02:54:44;;;;;;;8.30;5.70;;;;;;;11.79;81.54;96666.88;2017297;29;20061;-59
2022/06/12 02:55:52;;;;;;;9.50;5.60;;;;;;;11.75;81.38;96673.09;2000895;29;20467;-62
2022/06/12 02:57:19;;;;;;;6.97;5.55;;;;;;;11.72;82.02;96668.88;2006080;29;20049;-61
2022/06/12 02:58:28;;;;;;;7.43;5.47;;;;;;;11.68;81.83;96673.34;2016697;29;20049;-61
2022/06/12 02:59:35;;;;;;;7.93;5.68;;;;;;;11.66;82.02;96674.31;2001196;29;20054;-62
2022/06/12 03:00:39;;;;;;;8.88;6.25;;;;;;;11.62;81.91;96677.94;2003469;29;20050;-62
2022/06/12 03:01:48;;;;;;;9.25;5.40;;;;;;;11.61;81.79;96677.09;2016341;29;20041;-60
2022/06/12 03:03:07;;;;;;;10.15;6.10;;;;;;;11.59;81.98;96672.88;2022176;29;20060;-63
2022/06/12 03:04:08;;;;;;;8.10;5.55;;;;;;;11.56;82.65;96671.25;2017111;29;20049;-60
2022/06/12 03:05:09;;;;;;;9.30;5.88;;;;;;;11.54;82.26;96680.84;2009539;29;20522;-61
2022/06/12 03:06:11;;;;;;;8.18;6.05;;;;;;;11.56;82.66;96681.66;2016466;29;20040;-60
2022/06/12 03:07:13;;;;;;;10.52;6.05;;;;;;;11.54;82.62;96672.22;2001240;29;20053;-61
2022/06/12 03:08:16;;;;;;;9.65;5.80;;;;;;;11.52;82.08;96677.50;2009119;29;20053;-59
2022/06/12 03:09:17;;;;;;;9.27;5.70;;;;;;;11.51;82.46;96675.78;2009511;29;20056;-63
2022/06/12 03:10:21;;;;;;;11.80;6.18;;;;;;;11.48;83.05;96679.34;2001417;29;20046;-62
2022/06/12 03:11:29;;;;;;;12.20;6.50;;;;;;;11.48;82.24;96678.50;2016874;29;20067;-60
2022/06/12 03:12:32;;;;;;;8.35;6.18;;;;;;;11.48;82.61;96681.09;2016173;29;20129;-60
2022/06/12 03:13:33;;;;;;;8.43;5.97;;;;;;;11.48;83.38;96681.09;2017280;29;20064;-65
2022/06/12 03:14:34;;;;;;;9.07;5.63;;;;;;;11.46;82.92;96681.16;2016327;29;20048;-60
2022/06/12 03:15:54;;;;;;;8.35;6.07;;;;;;;11.44;82.44;96685.59;2016635;29;20417;-62
2022/06/12 03:16:55;;;;;;;8.32;5.75;;;;;;;11.44;82.66;96679.53;2016657;29;20547;-62
2022/06/12 03:17:58;;;;;;;8.43;6.10;;;;;;;11.41;82.63;96677.03;2009027;29;20533;-59
2022/06/12 03:19:04;;;;;;;9.65;5.53;;;;;;;11.42;82.73;96683.97;2017097;29;20129;-60
2022/06/12 03:20:06;;;;;;;8.73;5.93;;;;;;;11.42;83.02;96691.75;2009458;29;20049;-60
2022/06/12 03:21:29;;;;;;;7.97;5.95;;;;;;;11.43;83.25;96685.63;2016721;29;20097;-60
2022/06/12 03:22:40;;;;;;;8.95;5.45;;;;;;;11.51;82.92;96685.34;2040647;23;20087;-59
2022/06/12 03:23:51;;;;;;;9.90;6.03;;;;;;;11.51;82.62;96680.97;2005463;29;20064;-60
2022/06/12 03:25:13;;;;;;;8.85;5.20;;;;;;;11.62;82.71;96689.19;1997411;29;20054;-59
2022/06/12 03:26:36;;;;;;;7.32;5.28;;;;;;;11.65;82.30;96689.09;2014640;29;20389;-59
2022/06/12 03:27:55;;;;;;;9.35;5.60;;;;;;;11.60;82.07;96690.16;2024649;29;20049;-60
2022/06/12 03:29:04;;;;;;;8.85;6.10;;;;;;;11.57;82.74;96692.88;2022908;29;20439;-59
2022/06/12 03:30:28;;;;;;;9.27;6.20;;;;;;;11.60;82.79;96692.75;2024362;29;20063;-59
2022/06/12 03:31:35;;;;;;;9.40;6.03;;;;;;;11.58;82.80;96698.03;2019062;29;20048;-60
2022/06/12 03:32:40;;;;;;;8.07;5.30;;;;;;;11.56;82.21;96697.25;2019293;29;20052;-60
2022/06/12 03:33:47;;;;;;;8.55;6.15;;;;;;;11.56;82.93;96692.06;2024892;29;20032;-60
2022/06/12 03:35:01;;;;;;;8.52;5.50;;;;;;;11.54;82.54;96696.47;2016463;29;20551;-60
2022/06/12 03:36:17;;;;;;;9.82;6.13;;;;;;;11.56;82.71;96699.00;2010459;29;20049;-60
2022/06/12 03:37:40;;;;;;;10.88;5.70;;;;;;;11.53;82.16;96694.78;2006996;29;20049;-60
2022/06/12 03:38:44;;;;;;;7.05;4.95;;;;;;;11.52;82.68;96693.09;2011249;29;20440;-60
2022/06/12 03:39:54;;;;;;;8.60;5.82;;;;;;;11.52;83.15;96695.69;2018137;29;20053;-59
2022/06/12 03:41:19;;;;;;;8.57;6.25;;;;;;;11.41;82.61;96677.03;2019297;29;20057;-60
2022/06/12 03:42:30;;;;;;;8.32;5.32;;;;;;;11.57;83.14;96701.53;2012185;29;20598;-59
2022/06/12 03:43:42;;;;;;;9.63;5.72;;;;;;;11.58;82.63;96698.03;2015616;29;20063;-59
2022/06/12 03:44:58;;;;;;;7.05;5.20;;;;;;;11.60;82.84;96701.44;2019728;29;20501;-59
2022/06/12 03:46:39;;;;;;;7.00;5.30;;;;;;;11.63;83.04;96700.47;2012054;29;20049;-59
2022/06/12 03:47:48;;;;;;;6.38;4.78;;;;;;;11.67;82.86;96695.06;2025706;29;20044;-60
2022/06/12 03:49:09;;;;;;;;;;;;;;;11.73;82.44;96706.13;2016984;29;20045;-60
2022/06/12 03:50:16;;;;;;;7.68;4.80;;;;;;;11.75;81.94;96696.50;2019706;29;20443;-59
2022/06/12 03:51:25;;;;;;;8.75;4.93;;;;;;;11.81;81.46;96701.47;2011183;29;20053;-60
2022/06/12 03:52:41;;;;;;;6.68;4.97;;;;;;;11.81;82.06;96698.84;2012933;29;20060;-59
2022/06/12 03:53:53;;;;;;;7.22;4.72;;;;;;;11.83;81.47;96702.25;2020079;29;20060;-58
2022/06/12 03:55:06;;;;;;;6.53;4.72;;;;;;;11.85;81.38;96703.03;2024303;29;20048;-59
2022/06/12 03:59:00;;;;;;;7.15;4.88;;;;;;;11.95;82.08;96688.78;2025514;29;20052;-60
2022/06/12 04:00:07;;;;;;;7.32;4.75;;;;;;;11.99;81.94;96687.72;2018509;29;20071;-57
2022/06/12 04:01:15;;;;;;;7.95;5.60;;;;;;;12.02;80.97;96687.59;2017216;29;20064;-60
2022/06/12 04:02:19;;;;;;;8.45;5.20;;;;;;;12.04;81.49;96692.75;2019076;29;20053;-59
2022/06/12 04:03:31;;;;;;;7.40;5.03;;;;;;;12.08;80.46;96695.16;2025616;29;20053;-58
2022/06/12 04:04:33;;;;;;;6.53;4.90;;;;;;;12.14;80.79;96692.28;2008673;29;20084;-59
2022/06/12 04:05:37;;;;;;;8.57;5.05;;;;;;;12.17;79.90;96687.88;1996408;29;20523;-59
2022/06/12 04:06:40;;;;;;;7.70;4.90;;;;;;;12.18;80.54;96682.59;2018244;29;20053;-59
2022/06/12 04:07:45;;;;;;;9.23;4.72;;;;;;;12.21;79.85;96687.66;2018270;29;20041;-60
2022/06/12 04:08:48;;;;;;;9.68;5.20;;;;;;;12.24;80.29;96689.28;2018342;29;20460;-60
2022/06/12 04:09:51;;;;;;;9.02;4.90;;;;;;;12.30;80.22;96694.25;2023038;29;20048;-60
2022/06/12 04:10:52;;;;;;;6.90;4.97;;;;;;;12.32;80.17;96692.41;2018079;29;20109;-59
2022/06/12 04:11:58;;;;;;;8.00;4.57;;;;;;;12.36;79.73;96689.59;2002883;29;20462;-60
2022/06/12 04:12:59;;;;;;;6.32;4.68;;;;;;;12.39;80.02;96679.97;2017428;29;20057;-59
2022/06/12 04:14:01;;;;;;;6.90;4.03;;;;;;;12.42;79.26;96691.09;2018055;29;20059;-60
2022/06/12 04:15:12;;;;;;;8.35;5.25;;;;;;;12.45;78.74;96690.13;2002960;29;20469;-60
2022/06/12 04:16:34;;;;;;;6.68;4.47;;;;;;;12.45;79.26;96690.13;2011118;29;20069;-57
2022/06/12 04:17:36;;;;;;;9.18;5.32;;;;;;;12.53;78.39;96690.63;2006980;29;20417;-58
2022/06/12 04:18:37;;;;;;;7.13;4.60;;;;;;;12.59;77.73;96698.19;2009854;29;20060;-58
2022/06/12 04:21:02;;;;;;;6.47;4.95;;;;;;;12.72;77.49;96694.13;2012290;29;20053;-59
2022/06/12 04:22:06;;;;;;;8.10;4.30;;;;;;;12.75;77.50;96693.13;2007944;29;20525;-59
2022/06/12 04:23:12;;;;;;;7.40;4.68;;;;;;;12.80;77.25;96692.03;2010550;29;20556;-58
2022/06/12 04:24:16;;;;;;;6.82;4.60;;;;;;;12.82;76.96;96696.31;2011075;29;20057;-56
2022/06/12 04:25:31;;;;;;;5.47;3.83;;;;;;;12.92;77.32;96695.84;2018713;29;20060;-58
2022/06/12 04:26:32;;;;;;;6.18;4.50;;;;;;;12.96;77.12;96696.53;2009298;29;20505;-60
2022/06/12 04:27:36;;;;;;;5.45;4.20;;;;;;;13.01;76.99;96694.56;2011325;29;20045;-59
2022/06/12 04:28:40;;;;;;;6.88;4.40;;;;;;;13.03;76.35;96693.56;2017896;29;20143;-58
2022/06/12 04:30:14;;;;;;;6.13;4.30;;;;;;;13.09;76.34;96695.06;2010961;29;20037;-61
2022/06/12 04:31:18;;;;;;;6.95;4.10;;;;;;;13.12;76.42;96702.72;2014252;29;20059;-59
2022/06/12 04:32:19;;;;;;;7.78;4.32;;;;;;;13.12;76.91;96699.28;2017931;29;20053;-60
2022/06/12 04:33:42;;;;;;;6.15;4.43;;;;;;;13.16;76.82;96699.06;2025386;29;20064;-58
2022/06/12 04:34:43;;;;;;;6.63;4.05;;;;;;;13.22;76.54;96697.94;2020504;29;20092;-59
2022/06/12 04:35:49;;;;;;;6.38;4.25;;;;;;;13.23;76.61;96697.88;2017817;29;20045;-60
2022/06/12 04:36:55;;;;;;;7.55;4.13;;;;;;;13.28;76.71;96702.06;2026196;29;20063;-60
2022/06/12 04:37:57;;;;;;;6.57;4.03;;;;;;;13.29;76.98;96702.00;2025283;29;20064;-59
2022/06/12 04:38:58;;;;;;;5.88;4.20;;;;;;;13.35;76.08;96701.69;2017709;29;20093;-60
2022/06/12 04:40:01;;;;;;;5.75;3.90;;;;;;;13.31;75.89;96697.56;2017626;29;20502;-60
2022/06/12 04:41:02;;;;;;;4.80;3.80;;;;;;;13.37;75.37;96699.88;2010076;29;20064;-60
2022/06/12 04:42:05;;;;;;;7.45;4.25;;;;;;;13.41;75.77;96704.00;2009400;29;20053;-60
2022/06/12 04:43:06;;;;;;;5.18;3.78;;;;;;;13.46;75.07;96703.81;2033729;29;20056;-59
2022/06/12 04:44:08;;;;;;;6.60;4.18;;;;;;;13.53;75.23;96702.59;2017256;29;20053;-60
2022/06/12 04:45:09;;;;;;;6.22;4.38;;;;;;;13.58;75.29;96700.63;2017883;29;20049;-59
2022/06/12 04:46:10;;;;;;;6.68;3.90;;;;;;;13.66;74.65;96700.25;2017284;29;20533;-59
2022/06/12 04:47:13;;;;;;;6.88;4.30;;;;;;;13.70;74.89;96701.78;2018522;29;20057;-60
2022/06/12 04:48:19;;;;;;;6.55;4.22;;;;;;;13.74;74.42;96703.34;2027974;29;20052;-59
2022/06/12 04:49:22;;;;;;;8.00;4.07;;;;;;;13.72;74.43;96701.72;2018318;29;20049;-59
2022/06/12 04:50:23;;;;;;;5.95;3.55;;;;;;;13.76;73.97;96701.47;2017442;29;20059;-60
2022/06/12 04:51:25;;;;;;;4.88;3.97;;;;;;;13.72;74.00;96697.34;2010017;29;20050;-59
2022/06/12 04:52:26;;;;;;;6.65;4.05;;;;;;;13.78;73.71;96701.41;2002303;29;20545;-60
2022/06/12 04:53:28;;;;;;;7.93;4.07;;;;;;;13.85;73.57;96700.22;2010225;29;20049;-60
2022/06/12 04:54:29;;;;;;;5.90;3.83;;;;;;;13.91;73.24;96694.69;2018955;29;20057;-59
2022/06/12 04:55:32;;;;;;;6.78;3.70;;;;;;;13.88;73.31;96687.84;2025744;29;20049;-60
2022/06/12 04:56:34;;;;;;;5.30;3.88;;;;;;;13.96;73.51;96690.06;2010166;29;20071;-58
2022/06/12 04:57:35;;;;;;;5.32;3.88;;;;;;;13.97;72.54;96689.13;2001862;29;20060;-61
2022/06/12 04:58:37;;;;;;;4.78;3.30;;;;;;;14.04;72.82;96692.31;2009816;29;20037;-59
2022/06/12 04:59:38;;;;;;;6.18;3.97;;;;;;;14.09;73.11;96692.94;2017517;29;20055;-60
2022/06/12 05:00:39;;;;;;;6.35;3.13;;;;;;;14.10;72.95;96695.44;2016948;29;20064;-60
2022/06/12 05:01:41;;;;;;;6.93;3.65;;;;;;;14.14;73.16;96690.94;2017389;29;20049;-60
2022/06/12 05:02:42;;;;;;;4.95;3.35;;;;;;;14.16;72.67;96696.06;2009546;29;20049;-61
2022/06/12 05:03:44;;;;;;;4.53;3.42;;;;;;;14.17;72.44;96693.38;2016808;29;20056;-60
2022/06/12 05:04:45;;;;;;;5.60;3.70;;;;;;;14.22;72.35;96688.78;2017647;29;20051;-59
2022/06/12 05:05:47;;;;;;;4.70;3.50;;;;;;;14.29;71.95;96691.91;2017916;29;20052;-60
2022/06/12 05:06:50;;;;;;;6.47;3.25;;;;;;;14.30;71.92;96693.59;2002882;29;20049;-60
2022/06/12 05:07:51;;;;;;;5.60;3.95;;;;;;;14.31;71.63;96692.69;2009802;29;20069;-59
2022/06/12 05:08:54;;;;;;;5.88;3.30;;;;;;;14.32;71.47;96689.97;2033372;29;20052;-58
2022/06/12 05:09:55;;;;;;;5.32;3.45;;;;;;;14.35;71.49;96691.59;2016964;29;20045;-59
2022/06/12 05:10:56;;;;;;;4.25;2.90;;;;;;;14.39;71.54;96692.28;2002352;29;20064;-59
2022/06/12 05:11:57;;;;;;;4.68;3.55;;;;;;;14.42;71.35;96692.13;2009413;29;20060;-59
2022/06/12 05:12:58;;;;;;;5.35;3.10;;;;;;;14.44;70.88;96688.50;2023203;29;20041;-60
2022/06/12 05:14:00;;;;;;;6.65;3.30;;;;;;;14.48;70.92;96691.81;2017163;29;20053;-60
2022/06/12 05:15:01;;;;;;;5.78;3.40;;;;;;;14.54;71.04;96699.34;2010050;29;20525;-60
2022/06/12 05:16:02;;;;;;;5.43;3.33;;;;;;;14.59;70.80;96693.91;2009771;29;20559;-59
2022/06/12 05:17:06;;;;;;;8.05;3.58;;;;;;;14.66;70.57;96693.50;2017767;29;20056;-60
2022/06/12 05:18:07;;;;;;;6.88;3.20;;;;;;;14.68;70.98;96689.03;2017500;29;20064;-59
2022/06/12 05:19:12;;;;;;;4.63;3.13;;;;;;;14.74;70.78;96696.56;2024682;29;20048;-59
2022/06/12 05:20:20;;;;;;;7.03;3.28;;;;;;;14.78;70.84;96689.38;2024940;29;20048;-56
2022/06/12 05:21:22;;;;;;;6.53;3.13;;;;;;;14.84;71.07;96694.31;2018518;29;20064;-60
2022/06/12 05:22:25;;;;;;;4.07;3.25;;;;;;;14.86;70.47;96694.19;2009271;29;20053;-60
2022/06/12 05:23:26;;;;;;;4.75;3.05;;;;;;;14.86;70.27;96688.97;2010029;29;20533;-59